createdAt,value
2022-12-13T00:02:00.027Z,99722.59
2022-12-13T00:04:28.577Z,99721.03
2022-12-13T00:06:57.052Z,99719.44
2022-12-13T00:09:27.058Z,99712.50
2022-12-13T00:11:55.426Z,99715.22
2022-12-13T00:14:23.723Z,99711.00
2022-12-13T00:16:52.297Z,99703.59
2022-12-13T00:19:21.357Z,99715.00
2022-12-13T00:21:49.901Z,99713.59
2022-12-13T00:24:18.266Z,99717.84
2022-12-13T00:26:48.097Z,99719.44
2022-12-13T00:29:17.320Z,99715.09
2022-12-13T00:32:01.465Z,99716.22
2022-12-13T00:34:30.613Z,99719.31
2022-12-13T00:37:00.158Z,99711.72
2022-12-13T00:39:29.408Z,99711.16
2022-12-13T00:41:59.543Z,99710.94
2022-12-13T00:44:28.132Z,99710.13
2022-12-13T00:46:56.620Z,99705.72
2022-12-13T00:49:25.675Z,99706.66
2022-12-13T00:51:54.154Z,99692.19
2022-12-13T00:54:22.669Z,99694.94
2022-12-13T00:56:52.291Z,99697.31
2022-12-13T00:59:22.548Z,99700.53
2022-12-13T01:01:50.935Z,99703.13
2022-12-13T01:04:19.324Z,99697.31
2022-12-13T01:06:51.440Z,99703.25
2022-12-13T01:09:23.222Z,99700.72
2022-12-13T01:11:52.709Z,99696.44
2022-12-13T01:14:22.521Z,99702.22
2022-12-13T01:16:50.930Z,99694.63
2022-12-13T01:19:19.338Z,99696.16
2022-12-13T01:21:47.753Z,99699.31
2022-12-13T01:24:20.622Z,99695.75
2022-12-13T01:26:49.024Z,99698.25
2022-12-13T01:29:17.462Z,99701.88
2022-12-13T01:31:47.317Z,99699.88
2022-12-13T01:34:18.738Z,99688.03
2022-12-13T01:36:48.828Z,99694.56
2022-12-13T01:39:20.823Z,99703.47
2022-12-13T01:41:59.685Z,99701.41
2022-12-13T01:45:06.241Z,99697.72
2022-12-13T01:47:40.736Z,99697.19
2022-12-13T01:50:13.702Z,99694.44
2022-12-13T01:52:43.212Z,99697.19
2022-12-13T01:55:13.633Z,99695.34
2022-12-13T01:57:45.824Z,99690.13
2022-12-13T02:00:17.113Z,99696.00
2022-12-13T02:02:48.192Z,99690.72
2022-12-13T02:05:24.458Z,99698.06
2022-12-13T02:07:54.442Z,99693.31
2022-12-13T02:10:22.980Z,99690.84
2022-12-13T02:12:52.123Z,99689.25
2022-12-13T02:15:21.437Z,99687.50
2022-12-13T02:18:11.866Z,99685.66
2022-12-13T02:21:04.554Z,99687.38
2022-12-13T02:24:38.853Z,99679.00
2022-12-13T02:27:30.549Z,99678.19
2022-12-13T02:30:27.228Z,99674.72
2022-12-13T02:33:21.315Z,99679.25
2022-12-13T02:36:01.075Z,99681.56
2022-12-13T02:38:38.078Z,99677.97
2022-12-13T02:41:16.669Z,99681.31
2022-12-13T02:43:50.883Z,99662.41
2022-12-13T02:46:23.907Z,99671.22
2022-12-13T02:48:56.276Z,99663.41
2022-12-13T02:51:26.570Z,99666.13
2022-12-13T02:53:55.007Z,99669.72
2022-12-13T02:56:23.401Z,99673.19
2022-12-13T02:58:55.616Z,99667.56
2022-12-13T03:02:10.514Z,99661.13
2022-12-13T03:05:06.872Z,99663.50
2022-12-13T03:07:43.549Z,99667.59
2022-12-13T03:10:20.244Z,99664.69
2022-12-13T03:13:13.965Z,99659.84
2022-12-13T03:15:48.963Z,99663.44
2022-12-13T03:18:21.681Z,99667.44
2022-12-13T03:20:55.328Z,99669.16
2022-12-13T03:23:24.996Z,99660.09
2022-12-13T03:25:57.298Z,99657.91
2022-12-13T03:28:25.706Z,99662.50
2022-12-13T03:30:54.019Z,99655.91
2022-12-13T03:33:23.823Z,99653.72
2022-12-13T03:35:52.457Z,99654.19
2022-12-13T03:38:22.637Z,99655.03
2022-12-13T03:40:55.521Z,99653.19
2022-12-13T03:43:24.080Z,99653.19
2022-12-13T03:45:52.817Z,99655.75
2022-12-13T03:48:23.914Z,99649.84
2022-12-13T03:50:54.711Z,99647.09
2022-12-13T03:53:33.610Z,99640.78
2022-12-13T03:56:05.123Z,99641.50
2022-12-13T03:58:37.689Z,99634.13
2022-12-13T04:01:08.151Z,99640.13
2022-12-13T04:03:39.232Z,99642.22
2022-12-13T04:06:08.827Z,99651.94
2022-12-13T04:08:39.341Z,99637.50
2022-12-13T04:11:22.601Z,99638.81
2022-12-13T04:13:50.965Z,99643.25
2022-12-13T04:16:19.452Z,99640.59
2022-12-13T04:18:49.258Z,99641.53
2022-12-13T04:21:17.661Z,99642.03
2022-12-13T04:23:46.028Z,99634.09
2022-12-13T04:26:14.545Z,99639.28
2022-12-13T04:28:42.964Z,99644.78
2022-12-13T04:31:11.364Z,99650.31
2022-12-13T04:33:47.742Z,99639.44
2022-12-13T04:36:31.818Z,99639.44
2022-12-13T04:39:01.791Z,99631.06
2022-12-13T04:41:34.512Z,99643.63
2022-12-13T04:44:05.069Z,99635.53
2022-12-13T04:46:33.544Z,99641.66
2022-12-13T04:49:03.325Z,99649.75
2022-12-13T04:51:31.716Z,99649.75
2022-12-13T04:54:23.540Z,99650.16
2022-12-13T04:56:48.936Z,99649.47
2022-12-13T04:59:17.739Z,99647.81
2022-12-13T05:01:46.136Z,99645.13
2022-12-13T05:04:15.883Z,99644.25
2022-12-13T05:06:44.282Z,99640.06
2022-12-13T05:09:12.597Z,99632.97
2022-12-13T05:11:45.414Z,99627.22
2022-12-13T05:14:23.337Z,99631.53
2022-12-13T05:16:53.269Z,99626.88
2022-12-13T05:19:31.129Z,99638.16
2022-12-13T05:22:01.273Z,99641.31
2022-12-13T05:24:31.775Z,99645.69
2022-12-13T05:27:01.095Z,99653.72
2022-12-13T05:29:29.844Z,99648.78
2022-12-13T05:31:58.417Z,99647.09
2022-12-13T05:34:28.408Z,99646.34
2022-12-13T05:36:57.074Z,99640.22
2022-12-13T05:39:27.895Z,99638.63
2022-12-13T05:42:01.438Z,99642.38
2022-12-13T05:44:31.680Z,99641.00
2022-12-13T05:47:02.394Z,99646.94
2022-12-13T05:49:33.389Z,99638.56
2022-12-13T05:52:01.927Z,99628.31
2022-12-13T05:54:30.323Z,99628.13
2022-12-13T05:56:58.664Z,99624.97
2022-12-13T05:59:27.033Z,99624.25
2022-12-13T06:01:55.475Z,99632.91
2022-12-13T06:04:23.942Z,99628.41
2022-12-13T06:06:54.042Z,99636.38
2022-12-13T06:09:23.379Z,99639.50
2022-12-13T06:11:51.946Z,99638.97
2022-12-13T06:14:29.708Z,99638.09
2022-12-13T06:16:58.316Z,99633.50
2022-12-13T06:19:27.261Z,99643.69
2022-12-13T06:21:57.591Z,99636.25
2022-12-13T06:24:27.426Z,99646.50
2022-12-13T06:26:55.783Z,99641.16
2022-12-13T06:29:25.736Z,99637.84
2022-12-13T06:32:01.024Z,99640.41
2022-12-13T06:34:33.467Z,99646.22
2022-12-13T06:37:06.977Z,99641.81
2022-12-13T06:39:36.312Z,99642.66
2022-12-13T06:42:07.161Z,99641.81
2022-12-13T06:44:37.495Z,99649.75
2022-12-13T06:47:10.311Z,99650.09
2022-12-13T06:49:43.146Z,99648.25
2022-12-13T06:52:15.104Z,99643.75
2022-12-13T06:54:44.558Z,99649.09
2022-12-13T06:57:14.017Z,99644.34
2022-12-13T06:59:42.895Z,99639.41
2022-12-13T07:02:24.705Z,99639.94
2022-12-13T07:04:56.238Z,99645.19
2022-12-13T07:07:27.069Z,99642.63
2022-12-13T07:09:55.697Z,99645.00
2022-12-13T07:12:24.252Z,99643.91
2022-12-13T07:14:55.074Z,99642.84
2022-12-13T07:17:31.892Z,99650.56
2022-12-13T07:20:02.352Z,99648.25
2022-12-13T07:22:34.826Z,99654.78
2022-12-13T07:25:06.016Z,99651.28
2022-12-13T07:27:35.376Z,99653.25
2022-12-13T07:30:04.210Z,99646.22
2022-12-13T07:32:32.629Z,99656.59
2022-12-13T07:35:01.159Z,99656.88
2022-12-13T07:37:31.327Z,99649.38
2022-12-13T07:40:04.390Z,99649.38
2022-12-13T07:42:33.788Z,99653.81
2022-12-13T07:45:02.206Z,99647.22
2022-12-13T07:47:31.963Z,99651.53
2022-12-13T07:50:01.509Z,99652.75
2022-12-13T07:52:31.591Z,99651.94
2022-12-13T07:55:00.096Z,99658.84
2022-12-13T07:57:30.013Z,99653.75
2022-12-13T07:59:58.430Z,99654.94
2022-12-13T08:02:27.017Z,99653.94
2022-12-13T08:04:55.636Z,99656.31
2022-12-13T08:07:24.213Z,99662.25
2022-12-13T08:09:55.370Z,99656.66
2022-12-13T08:12:24.158Z,99663.72
2022-12-13T08:14:53.216Z,99658.84
2022-12-13T08:17:23.251Z,99650.03
2022-12-13T08:19:51.680Z,99653.66
2022-12-13T08:22:23.730Z,99652.75
2022-12-13T08:24:54.251Z,99651.50
2022-12-13T08:27:22.660Z,99650.63
2022-12-13T08:29:51.190Z,99652.91
2022-12-13T08:32:19.697Z,99658.25
2022-12-13T08:34:48.182Z,99653.09
2022-12-13T08:37:16.741Z,99643.06
2022-12-13T08:39:45.741Z,99642.50
2022-12-13T08:42:19.353Z,99645.34
2022-12-13T08:44:50.559Z,99648.13
2022-12-13T08:47:24.354Z,99637.53
2022-12-13T08:50:02.267Z,99634.16
2022-12-13T08:52:39.801Z,99638.63
2022-12-13T08:55:10.963Z,99646.13
2022-12-13T08:57:41.931Z,99650.91
2022-12-13T09:00:14.125Z,99649.97
2022-12-13T09:02:42.669Z,99653.72
2022-12-13T09:05:12.946Z,99650.50
2022-12-13T09:07:43.017Z,99643.44
2022-12-13T09:10:27.144Z,99641.69
2022-12-13T09:13:00.993Z,99657.41
2022-12-13T09:15:34.064Z,99664.78
2022-12-13T09:18:04.420Z,99660.22
2022-12-13T09:20:40.776Z,99658.75
2022-12-13T09:23:14.299Z,99656.38
2022-12-13T09:26:05.524Z,99645.53
2022-12-13T09:28:38.199Z,99654.13
2022-12-13T09:31:09.928Z,99661.03
2022-12-13T09:33:41.409Z,99669.25
2022-12-13T09:36:14.275Z,99671.38
2022-12-13T09:38:43.100Z,99678.66
2022-12-13T09:41:20.400Z,99679.28
2022-12-13T09:44:03.249Z,99683.19
2022-12-13T09:46:44.323Z,99677.81
2022-12-13T09:49:23.168Z,99684.84
2022-12-13T09:52:10.840Z,99681.66
2022-12-13T09:54:48.171Z,99682.31
2022-12-13T09:57:31.150Z,99683.25
2022-12-13T10:00:07.894Z,99677.56
2022-12-13T10:02:45.635Z,99675.50
2022-12-13T10:05:33.630Z,99663.81
2022-12-13T10:08:09.812Z,99667.56
2022-12-13T10:10:38.255Z,99663.91
2022-12-13T10:13:17.934Z,99670.44
2022-12-13T10:15:52.101Z,99665.44
2022-12-13T10:18:34.880Z,99655.75
2022-12-13T10:21:06.525Z,99653.69
2022-12-13T10:23:59.351Z,99660.13
2022-12-13T10:26:25.030Z,99662.09
2022-12-13T10:29:04.799Z,99666.53
2022-12-13T10:31:42.560Z,99664.06
2022-12-13T10:34:24.471Z,99654.59
2022-12-13T10:36:53.401Z,99649.25
2022-12-13T10:39:40.725Z,99636.72
2022-12-13T10:42:22.740Z,99641.63
2022-12-13T10:45:14.708Z,99635.69
2022-12-13T10:47:46.337Z,99631.91
2022-12-13T10:50:26.570Z,99635.72
2022-12-13T10:52:57.440Z,99637.47
2022-12-13T10:55:30.295Z,99632.28
2022-12-13T10:58:01.584Z,99627.88
2022-12-13T11:00:42.141Z,99618.16
2022-12-13T11:03:31.094Z,99612.91
2022-12-13T11:06:06.411Z,99618.69
2022-12-13T11:08:35.215Z,99616.06
2022-12-13T11:11:05.804Z,99614.50
2022-12-13T11:13:40.157Z,99614.22
2022-12-13T11:16:24.546Z,99600.41
2022-12-13T11:18:58.262Z,99602.19
2022-12-13T11:21:29.118Z,99594.91
2022-12-13T11:24:01.562Z,99595.38
2022-12-13T11:26:32.693Z,99583.47
2022-12-13T11:29:33.398Z,99587.28
2022-12-13T11:32:11.094Z,99580.75
2022-12-13T11:34:50.435Z,99579.56
2022-12-13T11:37:27.863Z,99568.56
2022-12-13T11:40:02.072Z,99566.16
2022-12-13T11:42:38.478Z,99560.34
2022-12-13T11:45:22.323Z,99558.91
2022-12-13T11:48:04.769Z,99560.19
2022-12-13T11:50:38.971Z,99571.13
2022-12-13T11:53:24.431Z,99562.53
2022-12-13T11:55:58.687Z,99562.28
2022-12-13T12:01:27.726Z,99564.06
2022-12-13T12:04:02.218Z,99565.19
2022-12-13T12:06:40.437Z,99552.53
2022-12-13T12:09:16.242Z,99539.59
2022-12-13T12:11:52.920Z,99539.81
2022-12-13T12:14:26.201Z,99547.88
2022-12-13T12:16:57.045Z,99549.50
2022-12-13T12:19:31.801Z,99536.69
2022-12-13T12:22:18.919Z,99536.78
2022-12-13T12:25:19.207Z,99548.69
2022-12-13T12:27:57.034Z,99535.78
2022-12-13T12:30:28.858Z,99535.81
2022-12-13T12:33:07.386Z,99527.28
2022-12-13T12:36:05.328Z,99526.94
2022-12-13T12:39:27.809Z,99526.56
2022-12-13T12:42:21.423Z,99526.50
2022-12-13T12:45:10.451Z,99522.56
2022-12-13T12:48:43.910Z,99522.25
2022-12-13T12:50:46.272Z,99518.38
2022-12-13T12:53:36.641Z,99513.22
2022-12-13T12:56:23.078Z,99503.38
2022-12-13T12:58:59.461Z,99499.31
2022-12-13T13:01:48.408Z,99497.13
2022-12-13T13:04:22.550Z,99511.84
2022-12-13T13:07:01.863Z,99510.22
2022-12-13T13:09:32.495Z,99498.00
2022-12-13T13:12:28.807Z,99497.44
2022-12-13T13:14:54.104Z,99497.44
2022-12-13T13:17:49.436Z,99499.66
2022-12-13T13:20:23.405Z,99501.44
2022-12-13T13:23:10.263Z,99505.84
2022-12-13T13:28:45.994Z,99505.69
2022-12-13T13:31:14.453Z,99508.22
2022-12-13T13:33:51.144Z,99506.72
2022-12-13T13:36:57.115Z,99503.31
2022-12-13T13:39:58.806Z,99495.91
2022-12-13T13:42:28.915Z,99491.66
2022-12-13T13:45:21.504Z,99490.56
2022-12-13T13:48:14.288Z,99487.22
2022-12-13T13:55:16.354Z,99485.19
2022-12-13T13:58:53.892Z,99488.38
2022-12-13T14:02:01.359Z,99494.41
2022-12-13T14:05:30.610Z,99494.28
2022-12-13T14:08:22.693Z,99486.34
2022-12-13T14:11:18.254Z,99494.44
2022-12-13T14:14:42.896Z,99493.41
2022-12-13T14:18:25.863Z,99499.06
2022-12-13T14:21:16.815Z,99507.88
2022-12-13T14:23:59.350Z,99508.09
2022-12-13T14:26:55.381Z,99504.25
2022-12-13T14:29:29.552Z,99496.31
2022-12-13T14:31:58.954Z,99499.69
2022-12-13T14:34:31.836Z,99500.63
2022-12-13T14:37:02.917Z,99496.16
2022-12-13T14:39:34.710Z,99495.63
2022-12-13T14:42:22.716Z,99485.28
2022-12-13T14:44:51.284Z,99483.38
2022-12-13T14:47:21.380Z,99481.50
2022-12-13T14:49:55.944Z,99486.84
2022-12-13T14:52:28.038Z,99474.97
2022-12-13T14:54:59.627Z,99483.13
2022-12-13T14:57:30.882Z,99485.06
2022-12-13T15:00:01.389Z,99485.66
2022-12-13T15:02:32.609Z,99482.28
2022-12-13T15:05:05.592Z,99483.22
2022-12-13T15:07:38.156Z,99481.28
2022-12-13T15:10:22.245Z,99488.84
2022-12-13T15:12:52.184Z,99483.03
2022-12-13T15:15:28.593Z,99482.81
2022-12-13T15:18:08.905Z,99477.50
2022-12-13T15:20:43.112Z,99475.75
2022-12-13T15:23:26.037Z,99471.56
2022-12-13T15:26:28.304Z,99465.78
2022-12-13T15:29:00.937Z,99457.16
2022-12-13T15:31:30.175Z,99445.06
2022-12-13T15:34:28.498Z,99457.00
2022-12-13T15:37:02.677Z,99449.53
2022-12-13T15:39:32.182Z,99441.22
2022-12-13T15:42:01.200Z,99442.19
2022-12-13T15:44:32.868Z,99437.28
2022-12-13T15:47:05.743Z,99435.03
2022-12-13T15:49:38.229Z,99429.09
2022-12-13T15:52:28.710Z,99430.00
2022-12-13T15:54:59.462Z,99430.66
2022-12-13T15:57:30.049Z,99428.16
2022-12-13T16:00:29.276Z,99423.94
2022-12-13T16:03:09.293Z,99424.78
2022-12-13T16:05:42.396Z,99427.03
2022-12-13T16:08:29.498Z,99425.09
2022-12-13T16:10:59.060Z,99425.09
2022-12-13T16:13:30.756Z,99430.03
2022-12-13T16:16:08.813Z,99424.81
2022-12-13T16:18:46.769Z,99423.84
2022-12-13T16:21:15.565Z,99416.13
2022-12-13T16:23:48.745Z,99417.13
2022-12-13T16:26:25.482Z,99419.50
2022-12-13T16:28:54.370Z,99425.44
2022-12-13T16:31:25.031Z,99422.88
2022-12-13T16:33:53.517Z,99425.97
2022-12-13T16:36:21.972Z,99411.63
2022-12-13T16:38:52.491Z,99405.53
2022-12-13T16:41:22.075Z,99405.50
2022-12-13T16:43:56.878Z,99398.66
2022-12-13T16:47:16.681Z,99398.66
2022-12-13T16:49:21.875Z,99409.53
2022-12-13T16:51:50.665Z,99405.97
2022-12-13T16:54:22.699Z,99403.63
2022-12-13T16:56:52.398Z,99396.84
2022-12-13T16:59:23.887Z,99395.13
2022-12-13T17:01:53.137Z,99394.97
2022-12-13T17:04:24.359Z,99392.69
2022-12-13T17:06:54.997Z,99388.88
2022-12-13T17:09:25.700Z,99384.81
2022-12-13T17:11:54.101Z,99391.25
2022-12-13T17:14:22.458Z,99386.28
2022-12-13T17:16:51.623Z,99391.41
2022-12-13T17:19:20.280Z,99373.66
2022-12-13T17:21:49.557Z,99377.13
2022-12-13T17:24:18.040Z,99381.00
2022-12-13T17:26:54.477Z,99384.25
2022-12-13T17:31:53.410Z,99380.69
2022-12-13T17:34:21.853Z,99383.06
2022-12-13T17:36:50.299Z,99384.94
2022-12-13T17:39:18.952Z,99389.34
2022-12-13T17:41:54.901Z,99392.78
2022-12-13T17:44:25.057Z,99393.56
2022-12-13T17:46:55.182Z,99391.19
2022-12-13T17:49:24.767Z,99385.19
2022-12-13T17:51:54.342Z,99382.47
2022-12-13T17:54:24.740Z,99375.56
2022-12-13T17:56:54.921Z,99373.94
2022-12-13T17:59:23.527Z,99375.72
2022-12-13T18:01:52.508Z,99380.63
2022-12-13T18:04:21.946Z,99377.09
2022-12-13T18:06:52.251Z,99379.94
2022-12-13T18:09:20.644Z,99384.22
2022-12-13T18:11:49.184Z,99372.31
2022-12-13T18:14:18.943Z,99373.09
2022-12-13T18:16:47.820Z,99370.66
2022-12-13T18:19:16.481Z,99362.16
2022-12-13T18:21:44.972Z,99363.78
2022-12-13T18:24:13.774Z,99345.34
2022-12-13T18:26:42.382Z,99361.34
2022-12-13T18:29:10.768Z,99369.94
2022-12-13T18:31:40.928Z,99359.78
2022-12-13T18:34:10.158Z,99363.13
2022-12-13T18:36:39.557Z,99364.19
2022-12-13T18:39:07.963Z,99352.28
2022-12-13T18:41:36.431Z,99346.38
2022-12-13T18:44:07.946Z,99346.28
2022-12-13T18:46:39.792Z,99348.00
2022-12-13T18:49:12.980Z,99351.25
2022-12-13T18:51:41.449Z,99345.16
2022-12-13T18:54:10.078Z,99352.22
2022-12-13T18:56:38.420Z,99350.59
2022-12-13T18:59:06.848Z,99349.81
2022-12-13T19:01:35.795Z,99353.44
2022-12-13T19:04:04.414Z,99351.69
2022-12-13T19:06:34.233Z,99349.06
2022-12-13T19:09:02.686Z,99344.06
2022-12-13T19:11:32.814Z,99339.84
2022-12-13T19:14:01.233Z,99336.56
2022-12-13T19:16:29.643Z,99331.59
2022-12-13T19:18:59.497Z,99333.13
2022-12-13T19:21:28.447Z,99331.22
2022-12-13T19:24:01.196Z,99335.69
2022-12-13T19:26:30.576Z,99327.31
2022-12-13T19:29:00.115Z,99324.59
2022-12-13T19:31:32.236Z,99325.53
2022-12-13T19:34:02.806Z,99309.38
2022-12-13T19:36:32.004Z,99310.00
2022-12-13T19:39:01.884Z,99308.28
2022-12-13T19:41:32.262Z,99310.81
2022-12-13T19:44:04.573Z,99306.66
2022-12-13T19:46:33.040Z,99298.19
2022-12-13T19:49:01.525Z,99299.28
2022-12-13T19:51:34.460Z,99300.03
2022-12-13T19:54:07.557Z,99302.75
2022-12-13T19:56:36.025Z,99292.22
2022-12-13T19:59:05.238Z,99277.59
2022-12-13T20:01:33.803Z,99278.56
2022-12-13T20:04:02.608Z,99278.50
2022-12-13T20:06:31.556Z,99282.66
2022-12-13T20:09:01.417Z,99281.09
2022-12-13T20:11:31.490Z,99276.91
2022-12-13T20:13:59.919Z,99275.25
2022-12-13T20:16:28.609Z,99268.50
2022-12-13T20:18:58.333Z,99275.28
2022-12-13T20:21:27.863Z,99265.72
2022-12-13T20:23:56.492Z,99275.13
2022-12-13T20:26:27.898Z,99276.88
2022-12-13T20:28:58.329Z,99284.41
2022-12-13T20:31:30.553Z,99268.34
2022-12-13T20:34:02.264Z,99269.19
2022-12-13T20:36:31.819Z,99259.13
2022-12-13T20:39:02.424Z,99263.41
2022-12-13T20:41:34.344Z,99261.75
2022-12-13T20:44:07.826Z,99259.75
2022-12-13T20:46:37.883Z,99257.56
2022-12-13T20:49:08.607Z,99256.59
2022-12-13T20:51:39.650Z,99256.59
2022-12-13T20:54:08.316Z,99261.81
2022-12-13T20:56:39.282Z,99254.97
2022-12-13T20:59:12.853Z,99255.22
2022-12-13T21:01:43.065Z,99241.66
2022-12-13T21:04:12.796Z,99242.53
2022-12-13T21:06:43.070Z,99238.53
2022-12-13T21:09:13.105Z,99237.81
2022-12-13T21:11:43.627Z,99232.72
2022-12-13T21:14:21.406Z,99224.94
2022-12-13T21:16:52.775Z,99226.81
2022-12-13T21:19:24.243Z,99234.34
2022-12-13T21:21:53.670Z,99234.06
2022-12-13T21:24:24.660Z,99239.28
2022-12-13T21:26:55.787Z,99227.97
2022-12-13T21:29:25.851Z,99227.72
2022-12-13T21:31:54.903Z,99219.97
2022-12-13T21:34:24.139Z,99220.13
2022-12-13T21:36:53.648Z,99218.44
2022-12-13T21:39:24.527Z,99200.34
2022-12-13T21:41:54.046Z,99203.03
2022-12-13T21:44:22.934Z,99200.44
2022-12-13T21:49:42.067Z,99192.13
2022-12-13T21:52:18.092Z,99176.88
2022-12-13T21:54:46.645Z,99177.03
2022-12-13T21:57:32.410Z,99171.88
2022-12-13T22:00:00.811Z,99156.88
2022-12-13T22:02:30.650Z,99158.34
2022-12-13T22:04:59.961Z,99148.97
2022-12-13T22:07:30.935Z,99136.34
2022-12-13T22:10:01.347Z,99131.97
2022-12-13T22:12:35.330Z,99132.66
2022-12-13T22:15:05.764Z,99141.91
2022-12-13T22:17:36.455Z,99132.75
2022-12-13T22:20:08.018Z,99122.59
2022-12-13T22:22:36.579Z,99116.59
2022-12-13T22:25:06.187Z,99109.81
2022-12-13T22:27:34.881Z,99100.47
2022-12-13T22:30:03.153Z,99096.25
2022-12-13T22:32:32.784Z,99110.69
2022-12-13T22:35:02.462Z,99105.63
2022-12-13T22:37:30.832Z,99106.59
2022-12-13T22:39:59.165Z,99103.00
2022-12-13T22:42:27.821Z,99099.69
2022-12-13T22:44:56.219Z,99083.50
2022-12-13T22:47:24.638Z,99093.00
2022-12-13T22:49:52.952Z,99085.59
2022-12-13T22:52:22.993Z,99083.22
2022-12-13T22:54:51.286Z,99075.66
2022-12-13T22:57:19.644Z,99075.50
2022-12-13T22:59:48.009Z,99070.50
2022-12-13T23:02:16.727Z,99065.34
2022-12-13T23:04:45.200Z,99067.06
2022-12-13T23:07:13.584Z,99063.75
2022-12-13T23:09:43.306Z,99062.75
2022-12-13T23:12:30.649Z,99063.53
2022-12-13T23:14:59.068Z,99055.13
2022-12-13T23:17:27.488Z,99060.97
2022-12-13T23:19:55.915Z,99056.91
2022-12-13T23:22:26.698Z,99067.63
2022-12-13T23:24:56.474Z,99059.38
2022-12-13T23:27:25.570Z,99056.97
2022-12-13T23:29:53.933Z,99051.91
2022-12-13T23:32:22.260Z,99048.38
2022-12-13T23:34:50.586Z,99050.97
2022-12-13T23:37:20.149Z,99046.75
2022-12-13T23:39:48.504Z,99034.19
2022-12-13T23:42:18.266Z,99028.91
2022-12-13T23:44:46.657Z,99026.50
2022-12-13T23:47:14.971Z,99017.78
2022-12-13T23:49:43.314Z,99010.25
2022-12-13T23:52:11.737Z,99017.06
2022-12-13T23:54:40.030Z,99019.53
2022-12-13T23:57:08.316Z,99012.63
2022-12-13T23:59:38.064Z,99031.41
